臺北終端管制區 - 桃園掃描雷達席

METAR RCTP 211400Z 03009KT 9999 FEW012 BKN045 BKN120 22/20 Q1018 NOSIG RMK A3008=

站台狀態:Online
最後更新:2018-11-21 22:15:02